Portada
METAR-TAF:

METAR-TAF

Aeropuertos :

Mafikeng, Sudáfrica

latitud: 25-47S, longitud: 025-32E, altitud: 1281 m

Observación

El informe se hizo hace 1 hora y 11 minutos, a las 20:00 UTC
Viento 5 kt del sur-sureste
Temperatura 4°C
Humedad 52%
Presión 1022 hPa

METAR: FAMM 262000Z AUTO 16005KT //// // ////// 04/M05 Q1022

Hora: 23:11 (21:11 UTC)

Pronóstico

El informe se hizo hace 12 horas y 11 minutos, a las 09:00 UTC
Pronóstico válido del 26 a las 10 UTC al 26 a las 18 UTC
Viento 13 kt del sur
Visibilidad 10 km o más
sin nubes por debajo de 1500 m y sin presencia de cumulonimbus.

TAF: FAMM 260900Z 2610/2618 17013KT CAVOK TX17/2612Z TN07/2618Z

Observaciones y pronósticos meteorológicos de más de 4000 aeropuertos (mensajes METAR y TAF).

Los puntos amarillos y rojos representan las estaciones disponibles.

Ponga el ratón en el punto deseado para ver el nombre de la estación.

Haga clic para ver las observaciones y los pronósticos meteorológicos.

Para cambiar el mapa : haga clic en los botones verdes con una cruz de color negro para hacer un zoom, en el botón verde con un guión para alejar o en las flechas verdes para mapas adyacentes.


METAR-TAF: